createdAt,value
2022-11-14T00:02:34.905Z,14.82
2022-11-14T00:05:20.919Z,12.07
2022-11-14T00:08:06.300Z,15.45
2022-11-14T00:10:51.971Z,18.73
2022-11-14T00:13:37.414Z,16.80
2022-11-14T00:16:22.765Z,14.52
2022-11-14T00:19:08.312Z,13.68
2022-11-14T00:21:53.688Z,11.63
2022-11-14T00:24:39.498Z,19.08
2022-11-14T00:27:24.720Z,15.52
2022-11-14T00:30:10.583Z,17.45
2022-11-14T00:32:56.042Z,19.83
2022-11-14T00:35:41.344Z,16.05
2022-11-14T00:38:26.840Z,16.65
2022-11-14T00:41:12.608Z,13.98
2022-11-14T00:43:57.927Z,17.27
2022-11-14T00:46:43.360Z,18.77
2022-11-14T00:49:28.599Z,15.65
2022-11-14T00:52:13.915Z,18.90
2022-11-14T00:54:59.564Z,18.80
2022-11-14T00:57:44.973Z,16.52
2022-11-14T01:00:30.545Z,14.82
2022-11-14T01:03:16.190Z,16.35
2022-11-14T01:06:09.825Z,16.42
2022-11-14T01:08:55.222Z,18.65
2022-11-14T01:11:40.586Z,18.77
2022-11-14T01:14:25.871Z,16.33
2022-11-14T01:17:11.637Z,16.80
2022-11-14T01:19:57.311Z,17.20
2022-11-14T01:22:42.757Z,15.50
2022-11-14T01:25:28.112Z,14.60
2022-11-14T01:28:16.381Z,16.70
2022-11-14T01:31:17.029Z,16.45
2022-11-14T01:34:02.548Z,16.27
2022-11-14T01:36:48.026Z,18.48
2022-11-14T01:39:33.352Z,17.13
2022-11-14T01:42:20.939Z,15.18
2022-11-14T01:45:43.963Z,16.60
2022-11-14T01:48:51.638Z,15.02
2022-11-14T01:51:42.863Z,16.85
2022-11-14T01:54:31.078Z,16.83
2022-11-14T01:57:19.039Z,12.55
2022-11-14T02:00:08.330Z,12.68
2022-11-14T02:02:54.078Z,11.20
2022-11-14T02:05:39.744Z,10.40
2022-11-14T02:08:25.619Z,12.18
2022-11-14T02:11:13.591Z,12.88
2022-11-14T02:14:00.277Z,13.30
2022-11-14T02:17:01.058Z,9.10
2022-11-14T02:20:02.148Z,8.27
2022-11-14T02:22:50.235Z,6.75
2022-11-14T02:25:35.772Z,9.80
2022-11-14T02:28:21.762Z,5.70
2022-11-14T02:31:07.242Z,9.20
2022-11-14T02:33:52.568Z,8.05
2022-11-14T02:36:38.064Z,7.03
2022-11-14T02:39:23.836Z,5.75
2022-11-14T02:42:09.238Z,5.43
2022-11-14T02:44:54.519Z,5.15
2022-11-14T02:47:39.514Z,5.18
2022-11-14T02:50:24.975Z,5.13
2022-11-14T02:53:10.290Z,5.80
2022-11-14T02:55:55.762Z,4.68
2022-11-14T02:58:41.304Z,6.47
2022-11-14T03:01:27.088Z,4.50
2022-11-14T03:04:12.455Z,5.85
2022-11-14T03:06:57.785Z,4.07
2022-11-14T03:09:43.331Z,4.35
2022-11-14T03:12:28.513Z,4.57
2022-11-14T03:15:13.869Z,5.45
2022-11-14T03:17:59.291Z,4.85
2022-11-14T03:20:44.548Z,4.97
2022-11-14T03:23:30.581Z,5.35
2022-11-14T03:26:16.420Z,5.38
2022-11-14T03:29:01.746Z,4.95
2022-11-14T03:31:47.273Z,4.30
2022-11-14T03:34:32.537Z,4.75
2022-11-14T03:37:18.304Z,4.45
2022-11-14T03:40:04.347Z,3.45
2022-11-14T03:42:50.081Z,4.22
2022-11-14T03:45:38.865Z,5.18
2022-11-14T03:48:24.128Z,4.22
2022-11-14T03:51:09.717Z,5.65
2022-11-14T03:53:55.422Z,4.50
2022-11-14T03:56:40.732Z,4.00
2022-11-14T03:59:26.069Z,4.30
2022-11-14T04:02:11.375Z,3.97
2022-11-14T04:04:56.735Z,3.70
2022-11-14T04:07:42.220Z,4.43
2022-11-14T04:10:27.374Z,5.65
2022-11-14T04:13:12.788Z,4.78
2022-11-14T04:15:58.756Z,3.78
2022-11-14T04:18:44.181Z,4.90
2022-11-14T04:21:29.420Z,5.55
2022-11-14T04:24:14.815Z,4.55
2022-11-14T04:27:00.162Z,4.75
2022-11-14T04:29:45.545Z,5.20
2022-11-14T04:32:30.908Z,5.78
2022-11-14T04:35:16.386Z,6.50
2022-11-14T04:38:02.376Z,5.05
2022-11-14T04:40:54.331Z,6.00
2022-11-14T04:43:40.224Z,6.35
2022-11-14T04:46:25.561Z,6.20
2022-11-14T04:49:10.693Z,6.38
2022-11-14T04:51:56.018Z,6.25
2022-11-14T04:54:41.498Z,4.07
2022-11-14T04:57:27.241Z,4.75
2022-11-14T05:00:13.103Z,4.70
2022-11-14T05:03:01.206Z,5.57
2022-11-14T05:05:46.701Z,3.92
2022-11-14T05:08:32.645Z,5.93
2022-11-14T05:11:20.883Z,4.13
2022-11-14T05:14:08.630Z,4.38
2022-11-14T05:16:53.938Z,5.00
2022-11-14T05:19:39.272Z,6.30
2022-11-14T05:22:24.669Z,4.97
2022-11-14T05:25:10.401Z,6.30
2022-11-14T05:27:56.045Z,5.60
2022-11-14T05:30:41.656Z,5.03
2022-11-14T05:33:27.146Z,5.97
2022-11-14T05:36:15.213Z,4.35
2022-11-14T05:39:00.583Z,5.55
2022-11-14T05:41:46.274Z,5.85
2022-11-14T05:44:31.667Z,4.32
2022-11-14T05:47:17.028Z,5.28
2022-11-14T05:50:03.527Z,4.85
2022-11-14T05:52:49.104Z,5.82
2022-11-14T05:55:34.552Z,5.75
2022-11-14T05:58:20.065Z,5.38
2022-11-14T06:01:16.785Z,5.95
2022-11-14T06:04:05.885Z,5.15
2022-11-14T06:06:51.104Z,5.25
2022-11-14T06:09:36.678Z,6.03
2022-11-14T06:12:21.979Z,6.03
2022-11-14T06:15:07.941Z,6.57
2022-11-14T06:17:56.160Z,6.07
2022-11-14T06:20:41.467Z,5.60
2022-11-14T06:23:27.185Z,6.35
2022-11-14T06:26:22.427Z,5.25
2022-11-14T06:29:08.041Z,6.95
2022-11-14T06:31:53.583Z,6.72
2022-11-14T06:34:39.081Z,7.75
2022-11-14T06:37:24.240Z,6.55
2022-11-14T06:40:10.238Z,5.45
2022-11-14T06:42:56.715Z,5.03
2022-11-14T06:45:42.075Z,7.68
2022-11-14T06:48:28.236Z,6.25
2022-11-14T06:51:15.325Z,5.35
2022-11-14T06:54:01.250Z,5.72
2022-11-14T06:56:47.214Z,7.07
2022-11-14T06:59:32.457Z,6.22
2022-11-14T07:02:21.703Z,7.38
2022-11-14T07:05:07.405Z,5.75
2022-11-14T07:07:52.911Z,5.63
2022-11-14T07:10:38.470Z,6.30
2022-11-14T07:13:24.067Z,6.68
2022-11-14T07:16:09.277Z,7.07
2022-11-14T07:18:54.800Z,7.85
2022-11-14T07:21:40.393Z,6.97
2022-11-14T07:24:25.545Z,6.78
2022-11-14T07:27:13.712Z,6.63
2022-11-14T07:29:59.266Z,7.32
2022-11-14T07:32:44.666Z,10.10
2022-11-14T07:35:30.084Z,6.55
2022-11-14T07:38:15.348Z,7.90
2022-11-14T07:41:03.146Z,7.32
2022-11-14T07:43:48.539Z,9.88
2022-11-14T07:46:33.861Z,9.85
2022-11-14T07:49:19.284Z,7.72
2022-11-14T07:52:04.645Z,8.80
2022-11-14T07:54:50.022Z,8.20
2022-11-14T07:57:40.316Z,9.18
2022-11-14T08:00:26.807Z,9.15
2022-11-14T08:03:11.972Z,9.15
2022-11-14T08:06:05.474Z,9.00
2022-11-14T08:08:50.968Z,9.18
2022-11-14T08:11:48.299Z,10.07
2022-11-14T08:14:33.918Z,10.63
2022-11-14T08:17:21.086Z,10.57
2022-11-14T08:20:08.196Z,9.73
2022-11-14T08:23:03.912Z,10.18
2022-11-14T08:25:49.237Z,11.15
2022-11-14T08:28:34.836Z,10.00
2022-11-14T08:31:21.853Z,8.38
2022-11-14T08:34:07.514Z,11.18
2022-11-14T08:36:52.900Z,10.55
2022-11-14T08:39:38.215Z,10.88
2022-11-14T08:42:23.567Z,10.80
2022-11-14T08:45:09.250Z,11.20
2022-11-14T08:47:54.800Z,11.98
2022-11-14T08:50:40.133Z,11.35
2022-11-14T08:53:25.707Z,11.48
2022-11-14T08:56:11.143Z,10.80
2022-11-14T08:58:56.217Z,11.65
2022-11-14T09:01:41.708Z,11.90
2022-11-14T09:04:27.097Z,12.52
2022-11-14T09:07:12.460Z,10.35
2022-11-14T09:09:57.693Z,11.18
2022-11-14T09:12:43.336Z,13.13
2022-11-14T09:15:29.302Z,11.82
2022-11-14T09:18:15.430Z,11.95
2022-11-14T09:21:06.099Z,11.35
2022-11-14T09:23:51.836Z,12.18
2022-11-14T09:26:36.991Z,12.75
2022-11-14T09:29:22.554Z,14.77
2022-11-14T09:32:07.781Z,13.07
2022-11-14T09:34:53.175Z,12.27
2022-11-14T09:37:39.239Z,11.63
2022-11-14T09:40:24.892Z,12.85
2022-11-14T09:43:39.712Z,12.15
2022-11-14T09:46:47.825Z,12.38
2022-11-14T09:49:39.297Z,10.57
2022-11-14T09:52:47.798Z,12.40
2022-11-14T09:55:37.072Z,10.88
2022-11-14T09:58:22.558Z,11.13
2022-11-14T10:01:37.378Z,12.38
2022-11-14T10:05:00.803Z,11.65
2022-11-14T10:08:09.362Z,13.50
2022-11-14T10:10:58.301Z,11.57
2022-11-14T10:14:03.069Z,11.18
2022-11-14T10:16:58.548Z,13.15
2022-11-14T10:20:09.306Z,14.65
2022-11-14T10:23:06.721Z,12.32
2022-11-14T10:25:56.590Z,12.18
2022-11-14T10:28:54.225Z,12.68
2022-11-14T10:31:58.160Z,12.68
2022-11-14T10:34:54.635Z,13.82
2022-11-14T10:37:46.676Z,13.93
2022-11-14T10:40:44.822Z,14.05
2022-11-14T10:43:30.638Z,13.10
2022-11-14T10:46:18.847Z,11.05
2022-11-14T10:49:15.177Z,11.38
2022-11-14T10:52:03.973Z,13.50
2022-11-14T10:54:57.912Z,13.05
2022-11-14T10:57:45.760Z,11.68
2022-11-14T11:00:31.491Z,12.35
2022-11-14T11:03:16.923Z,12.45
2022-11-14T11:06:03.137Z,15.20
2022-11-14T11:09:07.158Z,12.75
2022-11-14T11:11:58.471Z,16.42
2022-11-14T11:14:48.444Z,13.10
2022-11-14T11:17:38.779Z,13.63
2022-11-14T11:20:36.171Z,15.30
2022-11-14T11:23:26.881Z,13.10
2022-11-14T11:26:32.659Z,11.68
2022-11-14T11:29:20.066Z,12.60
2022-11-14T11:32:06.036Z,14.95
2022-11-14T11:34:51.803Z,13.45
2022-11-14T11:37:50.135Z,13.63
2022-11-14T11:40:35.434Z,13.70
2022-11-14T11:43:52.488Z,15.05
2022-11-14T11:46:57.130Z,14.30
2022-11-14T11:49:53.372Z,16.35
2022-11-14T11:53:17.332Z,16.02
2022-11-14T11:56:15.038Z,13.63
2022-11-14T11:59:28.680Z,14.07
2022-11-14T12:02:23.752Z,13.23
2022-11-14T12:05:17.261Z,11.88
2022-11-14T12:08:21.328Z,12.63
2022-11-14T12:11:12.368Z,14.05
2022-11-14T12:14:30.527Z,13.20
2022-11-14T12:17:22.096Z,15.02
2022-11-14T12:20:12.164Z,11.32
2022-11-14T12:23:12.633Z,14.50
2022-11-14T12:26:20.035Z,12.77
2022-11-14T12:29:34.711Z,14.63
2022-11-14T12:32:29.172Z,14.98
2022-11-14T12:35:21.729Z,16.10
2022-11-14T12:38:15.374Z,16.27
2022-11-14T12:41:02.347Z,14.20
2022-11-14T12:43:48.012Z,13.93
2022-11-14T12:47:05.465Z,15.05
2022-11-14T12:49:53.768Z,14.68
2022-11-14T12:52:45.600Z,12.48
2022-11-14T12:55:31.122Z,15.50
2022-11-14T12:58:59.301Z,16.27
2022-11-14T13:01:53.183Z,15.85
2022-11-14T13:05:09.651Z,14.45
2022-11-14T13:08:38.319Z,15.95
2022-11-14T13:12:02.377Z,15.55
2022-11-14T13:15:09.920Z,16.25
2022-11-14T13:18:33.118Z,15.70
2022-11-14T13:21:45.851Z,16.13
2022-11-14T13:24:59.610Z,17.80
2022-11-14T13:28:06.373Z,18.42
2022-11-14T13:31:15.279Z,15.55
2022-11-14T13:34:01.713Z,13.43
2022-11-14T13:37:17.235Z,16.90
2022-11-14T13:40:21.285Z,16.98
2022-11-14T13:43:47.575Z,16.33
2022-11-14T13:47:03.574Z,18.77
2022-11-14T13:50:01.385Z,16.92
2022-11-14T13:52:48.829Z,17.88
2022-11-14T13:55:55.540Z,17.02
2022-11-14T13:58:54.556Z,16.13
2022-11-14T14:02:07.780Z,16.27
2022-11-14T14:05:14.002Z,14.65
2022-11-14T14:08:17.396Z,15.80
2022-11-14T14:11:21.633Z,15.43
2022-11-14T14:14:29.071Z,13.07
2022-11-14T14:17:45.282Z,13.50
2022-11-14T14:20:52.415Z,14.00
2022-11-14T14:23:50.267Z,13.88
2022-11-14T14:26:59.354Z,13.75
2022-11-14T14:30:02.351Z,13.18
2022-11-14T14:33:15.887Z,14.57
2022-11-14T14:36:01.563Z,13.70
2022-11-14T14:38:47.758Z,12.55
2022-11-14T14:41:33.583Z,12.60
2022-11-14T14:44:32.122Z,13.32
2022-11-14T14:47:34.479Z,14.27
2022-11-14T14:50:22.968Z,15.52
2022-11-14T14:53:22.654Z,16.08
2022-11-14T14:56:19.077Z,15.85
2022-11-14T14:59:25.150Z,17.60
2022-11-14T15:02:17.806Z,17.45
2022-11-14T15:05:03.333Z,16.13
2022-11-14T15:07:50.126Z,17.83
2022-11-14T15:10:35.501Z,17.33
2022-11-14T15:13:21.062Z,14.90
2022-11-14T15:16:07.349Z,17.30
2022-11-14T15:18:53.851Z,15.48
2022-11-14T15:21:39.629Z,16.67
2022-11-14T15:24:25.022Z,16.70
2022-11-14T15:27:20.490Z,17.33
2022-11-14T15:30:23.798Z,15.68
2022-11-14T15:33:32.345Z,15.00
2022-11-14T15:36:17.933Z,15.13
2022-11-14T15:39:27.233Z,16.75
2022-11-14T15:42:18.678Z,16.00
2022-11-14T15:45:23.522Z,15.18
2022-11-14T15:48:14.152Z,12.68
2022-11-14T15:50:59.810Z,15.95
2022-11-14T15:53:49.046Z,14.57
2022-11-14T15:56:34.657Z,16.15
2022-11-14T15:59:20.266Z,13.45
2022-11-14T16:02:22.124Z,12.65
2022-11-14T16:05:07.897Z,13.35
2022-11-14T16:07:53.294Z,14.20
2022-11-14T16:10:39.352Z,13.43
2022-11-14T16:13:24.606Z,17.38
2022-11-14T16:16:10.171Z,14.02
2022-11-14T16:18:55.692Z,15.45
2022-11-14T16:21:41.769Z,14.63
2022-11-14T16:24:32.516Z,13.00
2022-11-14T16:27:19.340Z,13.68
2022-11-14T16:30:04.953Z,14.40
2022-11-14T16:32:51.054Z,13.05
2022-11-14T16:35:36.797Z,12.27
2022-11-14T16:38:22.106Z,10.80
2022-11-14T16:41:08.408Z,11.50
2022-11-14T16:43:57.417Z,10.45
2022-11-14T16:46:44.193Z,10.75
2022-11-14T16:49:29.845Z,10.90
2022-11-14T16:52:17.151Z,7.90
2022-11-14T16:55:02.750Z,9.95
2022-11-14T16:57:49.321Z,11.43
2022-11-14T17:00:35.870Z,9.23
2022-11-14T17:03:22.069Z,9.50
2022-11-14T17:06:08.888Z,9.48
2022-11-14T17:08:58.497Z,11.07
2022-11-14T17:11:44.723Z,10.50
2022-11-14T17:14:30.424Z,12.20
2022-11-14T17:17:15.780Z,11.63
2022-11-14T17:20:01.221Z,9.70
2022-11-14T17:22:46.645Z,12.07
2022-11-14T17:25:31.967Z,11.25
2022-11-14T17:28:17.213Z,10.85
2022-11-14T17:31:09.052Z,10.95
2022-11-14T17:33:56.014Z,9.65
2022-11-14T17:36:41.754Z,11.80
2022-11-14T17:39:27.133Z,11.13
2022-11-14T17:42:12.561Z,13.70
2022-11-14T17:45:00.992Z,13.02
2022-11-14T17:47:46.793Z,15.13
2022-11-14T17:50:37.395Z,13.05
2022-11-14T17:53:23.203Z,12.98
2022-11-14T17:56:20.888Z,16.30
2022-11-14T17:59:06.383Z,15.20
2022-11-14T18:01:52.591Z,15.55
2022-11-14T18:04:38.160Z,16.98
2022-11-14T18:07:23.852Z,14.18
2022-11-14T18:10:09.446Z,17.55
2022-11-14T18:12:54.478Z,16.45
2022-11-14T18:15:39.951Z,15.85
2022-11-14T18:18:25.369Z,15.85
2022-11-14T18:21:17.169Z,17.48
2022-11-14T18:24:02.768Z,16.20
2022-11-14T18:26:48.263Z,16.95
2022-11-14T18:29:33.621Z,15.27
2022-11-14T18:32:19.326Z,17.33
2022-11-14T18:35:05.542Z,16.60
2022-11-14T18:37:50.646Z,18.30
2022-11-14T18:40:36.255Z,24.02
2022-11-14T18:43:21.370Z,21.92
2022-11-14T18:46:09.102Z,19.02
2022-11-14T18:48:57.267Z,20.83
2022-11-14T18:51:42.773Z,21.73
2022-11-14T18:54:28.409Z,20.23
2022-11-14T18:57:13.745Z,19.33
2022-11-14T18:59:59.057Z,17.40
2022-11-14T19:02:49.909Z,22.63
2022-11-14T19:05:36.208Z,18.45
2022-11-14T19:08:21.514Z,20.80
2022-11-14T19:11:09.198Z,21.05
2022-11-14T19:13:54.897Z,22.20
2022-11-14T19:16:40.284Z,25.27
2022-11-14T19:19:25.795Z,21.27
2022-11-14T19:22:11.271Z,21.45
2022-11-14T19:24:57.929Z,19.45
2022-11-14T19:27:43.766Z,23.50
2022-11-14T19:30:29.149Z,18.98
2022-11-14T19:33:14.408Z,19.88
2022-11-14T19:36:05.380Z,20.88
2022-11-14T19:38:55.302Z,23.33
2022-11-14T19:41:40.958Z,18.85
2022-11-14T19:44:26.256Z,18.33
2022-11-14T19:47:11.474Z,22.60
2022-11-14T19:49:57.167Z,23.83
2022-11-14T19:52:43.503Z,21.70
2022-11-14T19:55:29.955Z,21.27
2022-11-14T19:58:15.735Z,19.40
2022-11-14T20:01:02.502Z,18.08
2022-11-14T20:03:59.361Z,18.55
2022-11-14T20:06:45.503Z,18.58
2022-11-14T20:09:30.825Z,20.25
2022-11-14T20:12:16.298Z,20.48
2022-11-14T20:15:01.542Z,16.13
2022-11-14T20:17:46.851Z,20.33
2022-11-14T20:20:32.164Z,22.35
2022-11-14T20:23:17.680Z,19.33
2022-11-14T20:26:07.122Z,19.90
2022-11-14T20:28:56.502Z,16.73
2022-11-14T20:31:41.617Z,21.92
2022-11-14T20:34:27.160Z,20.38
2022-11-14T20:37:12.395Z,19.30
2022-11-14T20:39:57.729Z,15.10
2022-11-14T20:42:47.705Z,17.60
2022-11-14T20:45:32.883Z,15.90
2022-11-14T20:48:18.292Z,17.95
2022-11-14T20:51:08.251Z,16.30
2022-11-14T20:53:55.467Z,14.52
2022-11-14T20:56:40.498Z,14.70
2022-11-14T20:59:26.054Z,15.45
2022-11-14T21:02:15.028Z,16.25
2022-11-14T21:05:00.905Z,15.52
2022-11-14T21:07:46.664Z,16.10
2022-11-14T21:10:45.838Z,16.08
2022-11-14T21:13:53.584Z,21.23
2022-11-14T21:16:39.918Z,16.88
2022-11-14T21:19:25.841Z,15.98
2022-11-14T21:22:11.214Z,18.15
2022-11-14T21:24:56.759Z,15.77
2022-11-14T21:27:41.966Z,16.38
2022-11-14T21:30:31.568Z,14.43
2022-11-14T21:33:16.760Z,18.95
2022-11-14T21:36:30.023Z,17.52
2022-11-14T21:39:15.542Z,19.27
2022-11-14T21:42:01.463Z,16.67
2022-11-14T21:44:46.852Z,17.90
2022-11-14T21:47:33.772Z,17.70
2022-11-14T21:50:19.278Z,20.25
2022-11-14T21:53:15.962Z,18.40
2022-11-14T21:56:14.953Z,18.92
2022-11-14T21:59:14.267Z,18.80
2022-11-14T22:02:18.343Z,18.35
2022-11-14T22:05:04.504Z,16.40
2022-11-14T22:07:49.675Z,17.58
2022-11-14T22:10:35.137Z,19.15
2022-11-14T22:13:20.531Z,18.15
2022-11-14T22:16:06.929Z,18.38
2022-11-14T22:18:52.828Z,15.73
2022-11-14T22:21:38.498Z,19.58
2022-11-14T22:24:24.126Z,20.15
2022-11-14T22:27:09.532Z,16.67
2022-11-14T22:29:54.886Z,15.27
2022-11-14T22:32:40.555Z,18.98
2022-11-14T22:35:25.602Z,21.67
2022-11-14T22:38:11.254Z,19.55
2022-11-14T22:40:57.905Z,21.15
2022-11-14T22:43:43.643Z,19.50
2022-11-14T22:46:29.337Z,19.27
2022-11-14T22:49:19.706Z,18.05
2022-11-14T22:52:06.658Z,18.30
2022-11-14T22:54:52.075Z,18.65
2022-11-14T22:57:37.467Z,20.95
2022-11-14T23:00:22.789Z,18.35
2022-11-14T23:03:08.210Z,16.52
2022-11-14T23:05:53.516Z,16.83
2022-11-14T23:08:39.453Z,16.25
2022-11-14T23:11:26.914Z,18.33
2022-11-14T23:14:14.309Z,19.60
2022-11-14T23:16:59.809Z,19.13
2022-11-14T23:19:45.333Z,21.02
2022-11-14T23:22:30.697Z,18.45
2022-11-14T23:25:16.285Z,18.52
2022-11-14T23:28:01.751Z,19.30
2022-11-14T23:30:47.209Z,21.85
2022-11-14T23:33:33.140Z,19.48
2022-11-14T23:36:18.974Z,18.88
2022-11-14T23:39:04.452Z,22.17
2022-11-14T23:41:49.789Z,19.10
2022-11-14T23:44:35.147Z,17.60
2022-11-14T23:47:20.664Z,21.15
2022-11-14T23:50:07.106Z,21.08
2022-11-14T23:52:53.155Z,18.00
2022-11-14T23:55:38.703Z,20.55
2022-11-14T23:58:25.302Z,22.13
